Weather at Ljubljana Jože Pučnik Airport

Public forecast

Using degrees Celsius for public forecast. Weather courtesy of forecast.io.

Current aviation weather report (METAR) for Ljubljana Jože Pučnik Airport

Retrieved 2020/12/04 22:30 UTC (27 minutes ago):

LJLJ 042230Z VRB02KT 5000 -FZRA BR FEW003 SCT033 BKN057 M01/M01 Q1004 NOSIG

Aviation forecast (TAF) for Ljubljana Jože Pučnik Airport

Retrieved 2020/12/04 18:05 UTC (5 hours ago):

TAF LJLJ 041700Z 0418/0518 VRB02KT 3500 BR FEW003 SCT023 OVC033 PROB40 TEMPO 0423/0511 1500 -RA BR BKN003 OVC033 PROB40 TEMPO 0511/0518 7000 -RA